Time;durP1;ratioP1;P1;durP2;ratioP2;P2;SDS_P1;SDS_P2;PMS_P1;PMS_P2;Temp;Humidity;BMP_temperature;BMP_pressure;BME280_temperature;BME280_humidity;BME280_pressure;Samples;Min_cycle;Max_cycle;Signal;HPM_P1;HPM_P2
2021/03/31 00:00:50;;;;;;;19.55;15.38;;;12.30;99.90;;;;;;4992622;28;20612;-76
2021/03/31 00:03:19;;;;;;;20.70;14.85;;;12.30;99.90;;;;;;4992803;28;20061;-76
2021/03/31 00:05:44;;;;;;;22.40;14.50;;;12.30;99.90;;;;;;4988298;28;20120;-76
2021/03/31 00:08:10;;;;;;;18.42;14.75;;;12.30;99.90;;;;;;4992938;28;20639;-76
2021/03/31 00:10:38;;;;;;;22.60;15.77;;;12.30;99.90;;;;;;4992980;28;20045;-76
2021/03/31 00:13:04;;;;;;;17.88;14.70;;;12.30;99.90;;;;;;4984346;28;20484;-76
2021/03/31 00:15:30;;;;;;;23.73;15.43;;;12.30;99.90;;;;;;4993384;28;20471;-75
2021/03/31 00:17:56;;;;;;;23.17;15.02;;;12.20;99.90;;;;;;4991057;28;20403;-76
2021/03/31 00:20:22;;;;;;;21.63;16.10;;;12.20;99.90;;;;;;4987996;28;20035;-76
2021/03/31 00:22:48;;;;;;;23.45;16.48;;;12.10;99.90;;;;;;4993253;28;20027;-76
2021/03/31 00:25:14;;;;;;;22.65;13.55;;;12.00;99.90;;;;;;4991008;28;20027;-77
2021/03/31 00:27:42;;;;;;;19.63;14.40;;;12.10;99.90;;;;;;4991719;28;20022;-75
2021/03/31 00:30:11;;;;;;;18.90;14.27;;;12.20;99.90;;;;;;4992734;28;20034;-75
2021/03/31 00:32:37;;;;;;;15.77;13.23;;;12.30;99.90;;;;;;4992530;28;20026;-75
2021/03/31 00:35:04;;;;;;;22.63;16.30;;;12.40;99.90;;;;;;4992530;28;20033;-75
2021/03/31 00:37:29;;;;;;;20.30;15.82;;;12.30;99.90;;;;;;4993406;28;20077;-76
2021/03/31 00:39:55;;;;;;;19.70;15.73;;;12.20;99.90;;;;;;4993003;28;20030;-76
2021/03/31 00:42:21;;;;;;;21.08;14.23;;;12.10;99.90;;;;;;4992847;28;20029;-76
2021/03/31 00:44:47;;;;;;;23.23;15.57;;;12.10;99.90;;;;;;4991626;28;20026;-76
2021/03/31 00:47:12;;;;;;;21.23;15.65;;;12.00;99.90;;;;;;4992944;28;20018;-75
2021/03/31 00:49:39;;;;;;;17.92;14.27;;;12.00;99.90;;;;;;4992710;28;20152;-76
2021/03/31 00:52:05;;;;;;;21.45;14.73;;;12.00;99.90;;;;;;4986805;28;20053;-76
2021/03/31 00:54:31;;;;;;;25.35;13.73;;;12.00;99.90;;;;;;4991831;28;20054;-75
2021/03/31 00:56:58;;;;;;;17.90;13.48;;;12.00;99.90;;;;;;4986031;28;20050;-76
2021/03/31 00:59:23;;;;;;;20.25;13.73;;;12.20;99.90;;;;;;4986660;28;20384;-76
2021/03/31 01:01:50;;;;;;;21.35;13.27;;;12.40;99.90;;;;;;4992639;28;20033;-76
2021/03/31 01:04:15;;;;;;;18.27;12.20;;;12.50;99.90;;;;;;4991975;28;20030;-76
2021/03/31 01:06:41;;;;;;;25.13;13.77;;;12.60;99.90;;;;;;4991196;28;20027;-76
2021/03/31 01:09:07;;;;;;;15.70;11.07;;;12.70;99.90;;;;;;4992171;28;20038;-76
2021/03/31 01:11:48;;;;;;;20.35;12.60;;;12.60;99.90;;;;;;4991167;28;20380;-76
2021/03/31 01:14:31;;;;;;;18.77;13.05;;;12.60;99.90;;;;;;4992615;28;20030;-76
2021/03/31 01:17:07;;;;;;;20.80;14.07;;;12.50;99.90;;;;;;4992821;28;20073;-76
2021/03/31 01:19:39;;;;;;;18.00;14.63;;;12.40;99.90;;;;;;4993071;28;20021;-76
2021/03/31 01:22:23;;;;;;;18.55;13.55;;;12.30;99.90;;;;;;4992315;28;20045;-77
2021/03/31 01:25:01;;;;;;;20.60;11.30;;;12.20;99.90;;;;;;4992385;28;20022;-76
2021/03/31 01:28:01;;;;;;;15.88;12.82;;;12.10;99.90;;;;;;4991396;28;20044;-76
2021/03/31 01:30:43;;;;;;;19.00;12.13;;;12.00;99.90;;;;;;4973555;28;20461;-76
2021/03/31 01:33:34;;;;;;;16.30;13.15;;;12.00;99.90;;;;;;4991976;28;20145;-76
2021/03/31 01:36:00;;;;;;;15.90;12.43;;;12.00;99.90;;;;;;4989430;28;20023;-76
2021/03/31 01:38:27;;;;;;;13.98;11.95;;;11.90;99.90;;;;;;4991039;28;20037;-76
2021/03/31 01:40:55;;;;;;;18.98;13.07;;;11.90;99.90;;;;;;4991596;28;20022;-76
2021/03/31 01:43:24;;;;;;;15.95;12.95;;;11.90;99.90;;;;;;4991774;28;20030;-76
2021/03/31 01:45:53;;;;;;;16.80;12.93;;;11.80;99.90;;;;;;4975026;28;20030;-77
2021/03/31 01:48:22;;;;;;;22.85;16.38;;;11.80;99.90;;;;;;4989688;28;20109;-76
2021/03/31 01:50:55;;;;;;;19.63;14.52;;;11.70;99.90;;;;;;4989230;28;20179;-76
2021/03/31 01:53:22;;;;;;;20.50;14.10;;;11.70;99.90;;;;;;4990880;28;20085;-77
2021/03/31 01:55:52;;;;;;;18.35;13.88;;;11.80;99.90;;;;;;4991140;28;20022;-76
2021/03/31 01:58:19;;;;;;;15.38;13.15;;;11.70;99.90;;;;;;4991190;28;20029;-77
2021/03/31 02:00:46;;;;;;;18.70;14.23;;;11.70;99.90;;;;;;4991173;28;20062;-77
2021/03/31 02:03:16;;;;;;;20.02;14.98;;;11.60;99.90;;;;;;4990940;28;20026;-76
2021/03/31 02:05:43;;;;;;;19.70;13.35;;;11.70;99.90;;;;;;4991202;28;20441;-76
2021/03/31 02:08:10;;;;;;;17.40;14.23;;;11.70;99.90;;;;;;4986892;28;20465;-75
2021/03/31 02:10:37;;;;;;;15.55;12.40;;;11.60;99.90;;;;;;4992094;28;20038;-75
2021/03/31 02:13:05;;;;;;;18.75;12.93;;;11.60;99.90;;;;;;4990173;28;20500;-76
2021/03/31 02:15:32;;;;;;;20.73;13.63;;;11.60;99.90;;;;;;4991679;28;20045;-76
2021/03/31 02:17:59;;;;;;;13.60;11.90;;;11.60;99.90;;;;;;4990735;28;20407;-76
2021/03/31 02:20:26;;;;;;;15.25;13.00;;;11.60;99.90;;;;;;4973336;28;20027;-76
2021/03/31 02:22:53;;;;;;;19.08;14.18;;;11.60;99.90;;;;;;4982633;28;20038;-75
2021/03/31 02:25:20;;;;;;;19.10;14.13;;;11.50;99.90;;;;;;4974032;28;20034;-75
2021/03/31 02:27:47;;;;;;;19.00;15.25;;;11.50;99.90;;;;;;4989723;28;20512;-75
2021/03/31 02:30:17;;;;;;;20.58;12.63;;;11.50;99.90;;;;;;4990403;28;20120;-75
2021/03/31 02:32:47;;;;;;;15.75;14.05;;;11.50;99.90;;;;;;4990869;28;20481;-75
2021/03/31 02:35:16;;;;;;;20.60;14.75;;;11.60;99.90;;;;;;4982811;28;20030;-75
2021/03/31 02:37:43;;;;;;;15.60;13.95;;;11.60;99.90;;;;;;4987963;28;20049;-76
2021/03/31 02:40:10;;;;;;;17.55;12.25;;;11.60;99.90;;;;;;4972832;28;20030;-76
2021/03/31 02:42:36;;;;;;;19.08;11.68;;;11.60;99.90;;;;;;4984153;28;20054;-76
2021/03/31 02:45:04;;;;;;;14.75;11.95;;;11.60;99.90;;;;;;4986314;28;20026;-76
2021/03/31 02:47:31;;;;;;;15.57;12.02;;;11.60;99.90;;;;;;4990673;28;20030;-76
2021/03/31 02:49:59;;;;;;;16.90;14.63;;;11.70;99.90;;;;;;4989533;28;20030;-77
2021/03/31 02:52:27;;;;;;;16.65;14.68;;;11.60;99.90;;;;;;4987667;28;20081;-76
2021/03/31 02:54:54;;;;;;;20.80;12.82;;;11.50;99.90;;;;;;4989680;28;20026;-77
2021/03/31 02:57:21;;;;;;;17.42;12.75;;;11.50;99.90;;;;;;4989672;28;20432;-77
2021/03/31 02:59:49;;;;;;;20.27;13.48;;;11.40;99.90;;;;;;4990429;28;20105;-77
2021/03/31 03:02:19;;;;;;;16.60;13.30;;;11.30;99.90;;;;;;4972365;28;20044;-77
2021/03/31 03:04:49;;;;;;;13.98;12.30;;;11.30;99.90;;;;;;4989589;28;20064;-76
2021/03/31 03:07:15;;;;;;;22.90;12.63;;;11.20;99.90;;;;;;4990841;28;20129;-76
2021/03/31 03:09:45;;;;;;;18.77;10.98;;;11.20;99.90;;;;;;4992319;28;20096;-76
2021/03/31 03:12:16;;;;;;;20.98;12.10;;;11.20;99.90;;;;;;4990775;28;20022;-75
2021/03/31 03:14:46;;;;;;;14.57;12.65;;;11.20;99.90;;;;;;4991124;28;20480;-75
2021/03/31 03:17:12;;;;;;;15.80;12.38;;;11.20;99.90;;;;;;4988996;28;20423;-75
2021/03/31 03:19:38;;;;;;;12.63;11.32;;;11.20;99.90;;;;;;4990361;28;20084;-75
2021/03/31 03:22:05;;;;;;;19.33;13.27;;;11.20;99.90;;;;;;4990176;28;20030;-75
2021/03/31 03:24:32;;;;;;;22.02;12.60;;;11.30;99.90;;;;;;4990512;28;20033;-76
2021/03/31 03:26:59;;;;;;;17.05;11.90;;;11.30;99.90;;;;;;4990373;28;20081;-76
2021/03/31 03:29:25;;;;;;;14.40;9.27;;;11.30;99.90;;;;;;4990818;28;20578;-77
2021/03/31 03:31:52;;;;;;;11.55;10.35;;;11.30;99.90;;;;;;4988391;28;20395;-76
2021/03/31 03:34:18;;;;;;;13.98;11.45;;;11.40;99.90;;;;;;4990575;28;20062;-76
2021/03/31 03:36:45;;;;;;;13.02;10.88;;;11.40;99.90;;;;;;4990786;28;20018;-76
2021/03/31 03:39:11;;;;;;;14.57;11.50;;;11.40;99.90;;;;;;4989018;28;20392;-76
2021/03/31 03:41:37;;;;;;;12.32;9.32;;;11.30;99.90;;;;;;4990248;28;20497;-76
2021/03/31 03:44:05;;;;;;;13.23;11.05;;;11.40;99.90;;;;;;4989477;28;20029;-76
2021/03/31 03:46:33;;;;;;;15.38;9.63;;;11.50;99.90;;;;;;4972945;28;20106;-76
2021/03/31 03:49:01;;;;;;;16.90;11.20;;;11.40;99.90;;;;;;4991088;28;20430;-77
2021/03/31 03:51:28;;;;;;;19.50;10.90;;;11.30;99.90;;;;;;4971513;28;20293;-76
2021/03/31 03:53:54;;;;;;;37.17;11.82;;;11.30;99.90;;;;;;4987062;28;20026;-76
2021/03/31 03:56:21;;;;;;;13.40;10.05;;;11.20;99.90;;;;;;4989910;28;20031;-76
2021/03/31 03:58:47;;;;;;;12.75;11.10;;;11.20;99.90;;;;;;4990678;28;20077;-76
2021/03/31 04:01:13;;;;;;;11.18;9.93;;;11.20;99.90;;;;;;4972713;28;20023;-76
2021/03/31 04:03:39;;;;;;;11.68;10.25;;;11.20;99.90;;;;;;4990206;28;20387;-76
2021/03/31 04:06:06;;;;;;;16.45;9.90;;;11.30;99.90;;;;;;4990352;28;20621;-76
2021/03/31 04:08:32;;;;;;;17.13;11.63;;;11.20;99.90;;;;;;4990294;28;20022;-76
2021/03/31 04:10:58;;;;;;;14.07;11.52;;;11.20;99.90;;;;;;4989600;28;20030;-76
2021/03/31 04:13:27;;;;;;;15.52;11.25;;;11.30;99.90;;;;;;4972286;28;20030;-76
2021/03/31 04:16:05;;;;;;;11.43;9.35;;;11.40;99.90;;;;;;4990159;28;20101;-76
2021/03/31 04:18:33;;;;;;;15.73;10.85;;;11.40;99.90;;;;;;4990393;28;20110;-76
2021/03/31 04:21:00;;;;;;;11.57;9.38;;;11.30;99.90;;;;;;4992059;28;20515;-76
2021/03/31 04:23:27;;;;;;;10.70;9.38;;;11.30;99.90;;;;;;4992821;28;20314;-76
2021/03/31 04:25:58;;;;;;;10.85;9.50;;;11.30;99.90;;;;;;4993788;28;20034;-76
2021/03/31 04:28:26;;;;;;;12.65;10.15;;;11.30;99.90;;;;;;4987253;28;20096;-76
2021/03/31 04:30:54;;;;;;;19.20;10.50;;;11.30;99.90;;;;;;4993297;28;20026;-76
2021/03/31 04:33:23;;;;;;;10.70;8.70;;;11.30;99.90;;;;;;4993142;28;20500;-76
2021/03/31 04:35:51;;;;;;;10.63;9.00;;;11.20;99.90;;;;;;4980445;28;20289;-76
2021/03/31 04:38:17;;;;;;;13.95;8.98;;;11.10;99.90;;;;;;4994282;28;20025;-76
2021/03/31 04:40:55;;;;;;;13.68;10.00;;;11.20;99.90;;;;;;4992595;28;20018;-76
2021/03/31 04:43:23;;;;;;;12.45;9.75;;;11.20;99.90;;;;;;4991809;28;20484;-76
2021/03/31 04:45:49;;;;;;;15.90;8.70;;;11.20;99.90;;;;;;4992756;28;20438;-76
2021/03/31 04:48:14;;;;;;;15.90;8.45;;;11.20;99.90;;;;;;4990252;28;20062;-76
2021/03/31 04:50:41;;;;;;;19.88;8.88;;;11.10;99.90;;;;;;4989449;28;20030;-76
2021/03/31 04:53:07;;;;;;;10.13;8.95;;;11.20;99.90;;;;;;4990662;28;20117;-76
2021/03/31 04:55:32;;;;;;;12.38;9.05;;;11.20;99.90;;;;;;4992355;28;20553;-76
2021/03/31 04:57:59;;;;;;;16.80;9.07;;;11.20;99.90;;;;;;4993028;28;20499;-76
2021/03/31 05:00:25;;;;;;;15.35;9.45;;;11.20;99.90;;;;;;4993598;28;20073;-77
2021/03/31 05:02:50;;;;;;;11.02;8.95;;;11.20;99.90;;;;;;4993326;28;20113;-77
2021/03/31 05:05:16;;;;;;;15.38;10.00;;;11.30;99.90;;;;;;4993871;28;20036;-77
2021/03/31 05:07:42;;;;;;;14.60;10.50;;;11.30;99.90;;;;;;4993981;28;20033;-76
2021/03/31 05:10:08;;;;;;;13.18;10.27;;;11.40;99.90;;;;;;4990073;28;20034;-77
2021/03/31 05:12:34;;;;;;;11.27;9.77;;;11.30;99.90;;;;;;4991395;28;20480;-76
2021/03/31 05:15:00;;;;;;;12.77;9.80;;;11.30;99.90;;;;;;4993420;28;20030;-76
2021/03/31 05:17:25;;;;;;;14.57;9.63;;;11.30;99.90;;;;;;4993419;28;20019;-76
2021/03/31 05:19:51;;;;;;;10.52;9.10;;;11.40;99.90;;;;;;4986162;28;20440;-77
2021/03/31 05:22:17;;;;;;;18.30;10.20;;;11.50;99.90;;;;;;4992093;28;20062;-76
2021/03/31 05:24:43;;;;;;;13.75;10.75;;;11.50;99.90;;;;;;4991529;28;20105;-77
2021/03/31 05:27:09;;;;;;;11.77;10.10;;;11.60;99.90;;;;;;4990617;28;20041;-76
2021/03/31 05:29:34;;;;;;;14.00;11.38;;;11.60;99.90;;;;;;4993028;28;20023;-77
2021/03/31 05:32:00;;;;;;;13.20;9.70;;;11.60;99.90;;;;;;4991908;28;20084;-76
2021/03/31 05:34:26;;;;;;;18.83;11.70;;;11.70;99.90;;;;;;4993162;28;20400;-76
2021/03/31 05:36:52;;;;;;;15.65;10.45;;;11.80;99.90;;;;;;4991418;28;20026;-76
2021/03/31 05:39:17;;;;;;;25.75;13.25;;;11.90;99.90;;;;;;4992518;28;20110;-77
2021/03/31 05:41:44;;;;;;;15.48;11.52;;;11.90;99.90;;;;;;4995108;28;20030;-76
2021/03/31 05:44:10;;;;;;;21.40;12.57;;;12.00;99.90;;;;;;4985735;28;20539;-77
2021/03/31 05:46:39;;;;;;;19.35;11.40;;;12.00;99.90;;;;;;4987826;28;20034;-76
2021/03/31 05:49:05;;;;;;;17.83;11.90;;;12.10;99.90;;;;;;4992003;28;20018;-76
2021/03/31 05:51:34;;;;;;;24.15;14.40;;;12.20;99.90;;;;;;4991604;28;20029;-76
2021/03/31 05:54:00;;;;;;;24.02;14.50;;;12.30;99.90;;;;;;4989021;28;20108;-76
2021/03/31 05:56:30;;;;;;;19.67;14.80;;;12.40;99.90;;;;;;4991330;28;20094;-77
2021/03/31 05:58:57;;;;;;;26.77;14.95;;;12.50;99.90;;;;;;4975071;28;20026;-76
2021/03/31 06:01:23;;;;;;;30.58;15.23;;;12.60;99.90;;;;;;4991344;28;20088;-77
2021/03/31 06:03:49;;;;;;;31.08;15.40;;;12.70;99.90;;;;;;4991978;28;20113;-77
2021/03/31 06:06:15;;;;;;;33.78;21.02;;;12.80;99.90;;;;;;4993312;28;20100;-76
2021/03/31 06:08:41;;;;;;;25.17;17.85;;;13.00;99.90;;;;;;4987930;28;20440;-69
2021/03/31 06:11:06;;;;;;;28.85;12.93;;;13.10;99.90;;;;;;4989549;28;20030;-69
2021/03/31 06:14:02;;;;;;;30.83;16.20;;;13.10;99.90;;;;;;4990199;28;20031;-68
2021/03/31 06:16:32;;;;;;;39.22;16.48;;;13.20;99.90;;;;;;4965988;28;20038;-69
2021/03/31 06:19:18;;;;;;;57.58;20.05;;;13.30;99.90;;;;;;4988409;28;20022;-68
2021/03/31 06:22:05;;;;;;;49.45;17.30;;;13.40;99.90;;;;;;4973063;28;20393;-68
2021/03/31 06:24:33;;;;;;;47.55;17.75;;;13.50;99.90;;;;;;4991359;28;20026;-70
2021/03/31 06:26:59;;;;;;;45.92;15.77;;;13.60;99.90;;;;;;4990777;28;20247;-70
2021/03/31 06:29:44;;;;;;;49.45;17.38;;;13.60;99.90;;;;;;4990508;28;20108;-70
2021/03/31 06:32:18;;;;;;;49.05;20.77;;;13.70;99.90;;;;;;4990917;28;20105;-70
2021/03/31 06:34:56;;;;;;;46.72;21.27;;;13.80;99.90;;;;;;4990958;28;20552;-68
2021/03/31 06:37:24;;;;;;;45.67;18.30;;;14.00;99.90;;;;;;4989292;28;20082;-68
2021/03/31 06:39:51;;;;;;;40.75;18.73;;;14.10;99.90;;;;;;4990679;28;20026;-69
2021/03/31 06:42:23;;;;;;;52.33;19.38;;;14.10;99.90;;;;;;4989789;28;20019;-71
2021/03/31 06:50:00;;;;;;;53.08;17.13;;;14.40;99.90;;;;;;4991715;28;20030;-69
2021/03/31 06:52:26;;;;;;;34.85;16.77;;;14.50;99.90;;;;;;4991310;28;20033;-69
2021/03/31 06:54:59;;;;;;;48.95;16.17;;;14.60;99.90;;;;;;4992043;28;20026;-69
2021/03/31 06:57:30;;;;;;;39.97;16.63;;;14.70;99.90;;;;;;4990808;28;20030;-70
2021/03/31 07:00:07;;;;;;;32.35;16.25;;;14.80;99.90;;;;;;4991190;28;20030;-69
2021/03/31 07:02:37;;;;;;;44.28;13.95;;;14.80;99.90;;;;;;4990565;28;20022;-72
2021/03/31 07:05:06;;;;;;;26.27;14.35;;;14.90;99.90;;;;;;4973679;28;20035;-71
2021/03/31 07:07:48;;;;;;;;;;;;;;;;;;;;;
2021/03/31 07:10:26;;;;;;;38.33;15.93;;;15.00;99.90;;;;;;4991983;28;20035;-70
2021/03/31 07:12:58;;;;;;;46.33;16.58;;;15.10;99.90;;;;;;4969575;28;20027;-69
2021/03/31 07:15:31;;;;;;;47.55;14.15;;;15.20;99.90;;;;;;4990451;28;20124;-70
2021/03/31 07:20:30;;;;;;;31.88;12.30;;;15.50;99.90;;;;;;5008106;23;20050;-88
2021/03/31 07:23:21;;;;;;;40.45;12.95;;;15.70;99.90;;;;;;4990781;28;20041;-87
2021/03/31 07:26:04;;;;;;;27.88;12.30;;;15.90;99.90;;;;;;4987326;28;20046;-87
2021/03/31 07:28:52;;;;;;;27.48;11.98;;;16.10;99.90;;;;;;4985243;28;20042;-88
2021/03/31 07:31:27;;;;;;;29.25;13.63;;;16.20;99.90;;;;;;5004506;28;20458;-89
2021/03/31 07:34:15;;;;;;;53.90;15.50;;;16.30;99.90;;;;;;4995666;28;20041;-88
2021/03/31 07:36:54;;;;;;;82.72;18.88;;;16.50;99.90;;;;;;4992203;28;20118;-90
2021/03/31 07:39:25;;;;;;;47.05;16.65;;;16.60;99.90;;;;;;4996932;28;20030;-87
2021/03/31 07:42:11;;;;;;;61.13;19.73;;;16.70;99.90;;;;;;4996692;28;20031;-86
2021/03/31 07:44:49;;;;;;;72.70;19.45;;;16.70;99.90;;;;;;4998570;28;20026;-93
2021/03/31 07:47:28;;;;;;;;;;;;;;;;;;;;;
2021/03/31 07:53:43;;;;;;;44.10;17.17;;;16.60;99.90;;;;;;4991560;23;20529;-69
2021/03/31 07:56:22;;;;;;;43.45;18.38;;;16.40;99.90;;;;;;4994284;28;20519;-70
2021/03/31 07:59:18;;;;;;;23.25;16.85;;;16.20;99.90;;;;;;4994846;28;20162;-69
2021/03/31 08:01:57;;;;;;;24.23;17.13;;;16.10;99.90;;;;;;4972598;28;20130;-64
2021/03/31 08:04:25;;;;;;;28.30;17.27;;;16.30;99.90;;;;;;4991930;28;20436;-66
2021/03/31 08:06:56;;;;;;;26.17;18.00;;;16.50;99.90;;;;;;4975241;28;20508;-67
2021/03/31 08:09:29;;;;;;;22.38;17.92;;;16.60;99.90;;;;;;4974698;28;20030;-64
2021/03/31 08:12:06;;;;;;;20.17;18.08;;;16.60;99.90;;;;;;4980993;28;20396;-67
2021/03/31 08:14:36;;;;;;;28.17;19.27;;;16.60;99.90;;;;;;4990982;28;20133;-64
2021/03/31 08:17:13;;;;;;;24.23;17.98;;;16.60;99.90;;;;;;4964809;28;20491;-65
2021/03/31 08:19:42;;;;;;;23.83;17.48;;;16.60;99.90;;;;;;4987029;28;20034;-67
2021/03/31 08:22:28;;;;;;;25.17;18.50;;;16.70;99.90;;;;;;4991767;28;20031;-67
2021/03/31 08:24:59;;;;;;;36.75;19.88;;;16.70;99.90;;;;;;4985485;28;20030;-66
2021/03/31 08:27:27;;;;;;;29.23;19.60;;;16.80;99.90;;;;;;4993618;28;20026;-66
2021/03/31 08:29:56;;;;;;;26.42;20.23;;;16.60;99.90;;;;;;4993608;28;20055;-67
2021/03/31 08:32:23;;;;;;;26.05;19.73;;;16.60;99.90;;;;;;4983170;28;20030;-67
2021/03/31 08:34:50;;;;;;;29.75;20.40;;;16.50;99.90;;;;;;4978582;28;20571;-66
2021/03/31 08:37:29;;;;;;;34.08;20.85;;;16.60;99.90;;;;;;4973726;28;20115;-67
2021/03/31 08:40:06;;;;;;;25.90;21.08;;;16.60;99.90;;;;;;4955859;28;20031;-68
2021/03/31 08:42:33;;;;;;;24.58;17.95;;;16.80;99.90;;;;;;4973706;28;20046;-65
2021/03/31 08:45:02;;;;;;;29.48;20.05;;;17.00;99.90;;;;;;4989870;28;20061;-66
2021/03/31 08:47:32;;;;;;;24.35;16.05;;;17.00;99.90;;;;;;4980186;28;20031;-66
2021/03/31 08:50:06;;;;;;;23.80;14.52;;;17.10;99.90;;;;;;4982625;28;20019;-68
2021/03/31 08:52:37;;;;;;;21.00;15.73;;;17.10;99.90;;;;;;4980753;28;20190;-68
2021/03/31 08:55:12;;;;;;;30.10;15.70;;;17.30;99.90;;;;;;4973913;28;20023;-67
2021/03/31 08:57:38;;;;;;;22.20;15.38;;;17.40;99.90;;;;;;4980500;28;20377;-68
2021/03/31 09:00:07;;;;;;;23.38;16.27;;;17.60;99.90;;;;;;4974482;28;20034;-68
2021/03/31 09:02:41;;;;;;;26.88;15.52;;;17.70;99.90;;;;;;4976378;28;20035;-67
2021/03/31 09:05:07;;;;;;;21.67;14.68;;;17.80;99.90;;;;;;4957442;28;20373;-65
2021/03/31 09:07:33;;;;;;;21.15;13.80;;;17.90;99.90;;;;;;4971767;28;20022;-66
2021/03/31 09:10:00;;;;;;;19.73;12.15;;;18.00;99.90;;;;;;4988671;28;20480;-65
2021/03/31 09:12:28;;;;;;;18.52;13.85;;;18.00;99.90;;;;;;4984739;28;20685;-68
2021/03/31 09:14:57;;;;;;;25.20;14.77;;;18.10;99.90;;;;;;4984222;28;20058;-67
2021/03/31 09:17:29;;;;;;;32.83;15.57;;;18.20;99.90;;;;;;4983121;28;20110;-68
2021/03/31 09:20:18;;;;;;;23.35;17.08;;;18.30;99.90;;;;;;4983683;28;20067;-66
2021/03/31 09:22:44;;;;;;;26.40;16.67;;;18.30;99.90;;;;;;4973381;28;20027;-68
2021/03/31 09:25:13;;;;;;;31.98;18.75;;;18.40;99.90;;;;;;4972717;28;20369;-68
2021/03/31 09:27:39;;;;;;;34.17;19.73;;;18.40;99.90;;;;;;4977502;28;20027;-69
2021/03/31 09:30:13;;;;;;;26.45;18.05;;;18.40;99.90;;;;;;4973307;28;20456;-66
2021/03/31 09:32:44;;;;;;;36.80;19.75;;;18.40;99.90;;;;;;4976782;28;20050;-67
2021/03/31 09:35:16;;;;;;;40.83;20.42;;;18.40;99.90;;;;;;4973260;28;20085;-66
2021/03/31 09:37:44;;;;;;;27.33;17.42;;;18.30;99.90;;;;;;4970265;28;20025;-67
2021/03/31 09:40:23;;;;;;;18.30;15.75;;;18.20;99.90;;;;;;4974175;28;20031;-65
2021/03/31 09:43:00;;;;;;;26.52;18.33;;;18.10;99.90;;;;;;4991781;28;20141;-66
2021/03/31 09:45:31;;;;;;;24.35;17.17;;;18.00;99.90;;;;;;4992333;28;20030;-66
2021/03/31 09:47:59;;;;;;;21.38;15.43;;;18.00;99.90;;;;;;4980744;28;20023;-69
2021/03/31 09:50:26;;;;;;;29.98;16.42;;;18.00;99.90;;;;;;4970250;28;20649;-74
2021/03/31 09:53:00;;;;;;;23.25;16.73;;;18.10;99.90;;;;;;4972351;28;20039;-66
2021/03/31 09:55:27;;;;;;;27.52;16.40;;;18.20;99.90;;;;;;4972822;28;20022;-66
2021/03/31 09:57:55;;;;;;;28.98;18.70;;;18.20;99.90;;;;;;4972375;28;20034;-65
2021/03/31 10:00:23;;;;;;;27.08;16.75;;;18.30;99.90;;;;;;4972977;28;20073;-65
2021/03/31 10:02:52;;;;;;;25.38;16.77;;;18.40;99.90;;;;;;4954644;28;20030;-66
2021/03/31 10:05:24;;;;;;;28.05;16.33;;;18.40;99.90;;;;;;4972867;28;20507;-64
2021/03/31 10:08:06;;;;;;;35.60;17.33;;;18.50;99.90;;;;;;4980823;28;20110;-66
2021/03/31 10:10:47;;;;;;;;;;;18.60;99.90;;;;;;4991942;28;20022;-65
2021/03/31 10:13:16;;;;;;;16.92;13.18;;;18.60;99.90;;;;;;4990766;28;20330;-66
2021/03/31 10:15:55;;;;;;;16.48;11.63;;;18.70;99.90;;;;;;4990290;28;20513;-66
2021/03/31 10:18:21;;;;;;;19.73;13.13;;;18.80;99.90;;;;;;4978302;28;20046;-66
2021/03/31 10:20:48;;;;;;;20.55;13.40;;;18.80;99.90;;;;;;4975770;28;20530;-64
2021/03/31 10:23:46;;;;;;;19.45;11.68;;;18.90;99.90;;;;;;4973450;28;20625;-65
2021/03/31 10:26:18;;;;;;;13.65;10.65;;;19.10;99.90;;;;;;4968817;28;20042;-66
2021/03/31 10:28:44;;;;;;;23.65;10.73;;;19.30;99.90;;;;;;4991898;28;20435;-65
2021/03/31 10:31:35;;;;;;;19.08;11.27;;;19.50;99.90;;;;;;4992082;28;20492;-66
2021/03/31 10:34:01;;;;;;;19.38;9.60;;;19.60;99.90;;;;;;4991548;28;20084;-69
2021/03/31 10:50:57;;;;;;;20.35;13.05;;;20.10;99.90;;;;;;4883771;29;20036;-67
2021/03/31 10:53:34;;;;;;;23.50;15.85;;;20.00;99.90;;;;;;4953979;28;20039;-67
2021/03/31 10:56:02;;;;;;;24.85;16.35;;;19.90;99.90;;;;;;4977339;28;20026;-63
2021/03/31 10:58:27;;;;;;;26.58;14.13;;;19.70;99.90;;;;;;4973419;28;20402;-67
2021/03/31 11:00:54;;;;;;;21.30;12.70;;;19.50;99.90;;;;;;4955961;28;20110;-67
2021/03/31 11:03:21;;;;;;;23.00;14.82;;;19.50;99.90;;;;;;4975492;28;20047;-68
2021/03/31 11:05:46;;;;;;;19.65;15.68;;;19.60;99.90;;;;;;4992625;28;20085;-67
2021/03/31 11:08:12;;;;;;;23.90;15.48;;;19.60;99.90;;;;;;4984752;28;20026;-68
2021/03/31 11:10:38;;;;;;;23.65;12.13;;;19.60;99.90;;;;;;4976791;28;20038;-67
2021/03/31 11:13:04;;;;;;;32.63;14.63;;;19.60;99.90;;;;;;4988993;28;20041;-67
2021/03/31 11:15:32;;;;;;;27.55;14.43;;;19.70;99.90;;;;;;4983788;28;20019;-66
2021/03/31 11:20:56;;;;;;;24.40;13.88;;;19.80;99.90;;;;;;4968177;28;20070;-66
2021/03/31 11:26:06;;;;;;;19.40;12.60;;;19.90;99.90;;;;;;4972351;28;20082;-66
2021/03/31 11:28:36;;;;;;;20.30;15.43;;;20.00;99.90;;;;;;4984730;28;20084;-66
2021/03/31 11:31:02;;;;;;;40.72;15.60;;;20.10;99.90;;;;;;4994272;28;20403;-65
2021/03/31 11:33:27;;;;;;;26.77;14.63;;;20.10;99.90;;;;;;4992562;28;20029;-68
2021/03/31 11:35:53;;;;;;;25.70;14.88;;;20.20;99.90;;;;;;4975910;28;20464;-69
2021/03/31 11:38:19;;;;;;;25.05;15.27;;;20.20;99.90;;;;;;4980014;28;20062;-72
2021/03/31 11:40:46;;;;;;;25.42;15.50;;;20.20;99.90;;;;;;4974979;28;20121;-69
2021/03/31 11:43:14;;;;;;;21.52;14.35;;;20.20;99.90;;;;;;4976582;28;20027;-70
2021/03/31 11:45:40;;;;;;;18.58;12.20;;;20.20;99.90;;;;;;4975274;28;20019;-70
2021/03/31 11:48:06;;;;;;;15.40;11.35;;;20.30;99.90;;;;;;4974801;28;20045;-70
2021/03/31 11:50:32;;;;;;;22.38;11.18;;;20.40;99.90;;;;;;4993144;28;20493;-68
2021/03/31 11:52:58;;;;;;;21.77;11.68;;;20.50;99.90;;;;;;4974972;28;20074;-72
2021/03/31 11:55:24;;;;;;;18.65;7.32;;;20.60;99.90;;;;;;4976325;28;20027;-70
2021/03/31 11:57:50;;;;;;;11.07;6.03;;;20.90;99.90;;;;;;4985981;28;20130;-69
2021/03/31 12:00:17;;;;;;;10.95;6.97;;;21.00;99.90;;;;;;4974264;28;20734;-72
2021/03/31 12:02:44;;;;;;;11.10;6.63;;;21.10;99.90;;;;;;4985931;28;20022;-71
2021/03/31 12:05:11;;;;;;;13.07;8.02;;;21.20;99.90;;;;;;4981319;28;20030;-69
2021/03/31 12:07:37;;;;;;;13.48;7.43;;;21.40;99.90;;;;;;4986580;28;20113;-70
2021/03/31 12:10:08;;;;;;;38.05;14.13;;;21.50;99.90;;;;;;4994229;28;20022;-71
2021/03/31 12:12:35;;;;;;;23.65;11.10;;;21.40;99.90;;;;;;4980224;28;20109;-69
2021/03/31 12:15:01;;;;;;;19.67;10.20;;;21.30;99.90;;;;;;4974654;28;20106;-71
2021/03/31 12:17:27;;;;;;;20.83;10.52;;;21.30;99.90;;;;;;4976012;28;20035;-71
2021/03/31 12:19:53;;;;;;;24.20;9.65;;;21.20;99.90;;;;;;4977060;28;20089;-68
2021/03/31 12:22:19;;;;;;;24.17;13.43;;;21.20;99.90;;;;;;4973408;28;20031;-70
2021/03/31 12:24:45;;;;;;;21.75;10.80;;;21.10;99.90;;;;;;4974716;28;20111;-71
2021/03/31 12:27:14;;;;;;;16.48;8.98;;;21.10;99.90;;;;;;4986110;28;20034;-69
2021/03/31 12:29:43;;;;;;;18.83;11.63;;;21.10;99.90;;;;;;4980148;28;20113;-70
2021/03/31 12:32:10;;;;;;;18.55;10.55;;;21.10;99.90;;;;;;4965794;28;20026;-71
2021/03/31 12:34:36;;;;;;;18.17;10.95;;;21.20;99.90;;;;;;4993158;28;20088;-71
2021/03/31 12:37:02;;;;;;;15.25;8.80;;;21.20;99.90;;;;;;4983454;28;20540;-70
2021/03/31 12:39:27;;;;;;;30.63;12.93;;;21.20;99.90;;;;;;4978216;28;20101;-70
2021/03/31 12:41:53;;;;;;;27.65;12.27;;;21.30;99.90;;;;;;4990630;28;20022;-71
2021/03/31 12:44:19;;;;;;;34.53;10.80;;;21.30;99.90;;;;;;4993572;28;20476;-69
2021/03/31 12:46:45;;;;;;;21.55;10.00;;;21.30;99.90;;;;;;4982582;28;20038;-69
2021/03/31 12:49:11;;;;;;;18.88;11.73;;;21.40;99.90;;;;;;4993193;28;20042;-69
2021/03/31 12:51:41;;;;;;;11.70;8.93;;;21.50;99.90;;;;;;4990290;28;20042;-69
2021/03/31 12:56:43;;;;;;;15.30;8.55;;;21.60;99.90;;;;;;4992872;28;20125;-71
2021/03/31 12:59:09;;;;;;;15.68;8.95;;;21.60;99.90;;;;;;4991776;28;20110;-71
2021/03/31 13:01:36;;;;;;;16.42;8.57;;;21.70;99.90;;;;;;4992879;28;20042;-71
2021/03/31 13:04:02;;;;;;;19.17;8.75;;;21.70;99.90;;;;;;4993274;28;20037;-71
2021/03/31 13:06:33;;;;;;;13.65;7.93;;;21.80;99.90;;;;;;4988646;28;20400;-70
2021/03/31 13:08:59;;;;;;;19.63;9.52;;;21.80;99.90;;;;;;4956430;28;20094;-72
2021/03/31 13:11:25;;;;;;;26.25;8.80;;;21.70;99.90;;;;;;4973521;28;20499;-70
2021/03/31 13:14:17;;;;;;;27.10;9.43;;;21.70;99.90;;;;;;4973509;28;20031;-70
2021/03/31 13:22:24;;;;;;;32.47;12.27;;;21.70;99.90;;;;;;4989237;28;20036;-72